Time,TemperatureF,DewpointF,PressureIn,WindDirection,WindDirectionDegrees,WindSpeedMPH,WindSpeedGustMPH,Humidity,HourlyPrecipIn,Conditions,Clouds,dailyrainin,SolarRadiationWatts/m^2,SoftwareType,DateUTC
2013-01-16 00:02:00,32.8,29.9,30.70,ENE,58,0.0,2.0,89,0.00,,,0.00,0,Wunderground v.1.15,2013-01-16 08:02:00,
2013-01-16 00:07:00,32.8,29.9,30.70,ENE,58,1.0,2.0,89,0.00,,,0.00,0,Wunderground v.1.15,2013-01-16 08:07:00,
2013-01-16 00:12:00,32.8,29.9,30.70,ENE,58,1.0,2.0,89,0.00,,,0.00,0,Wunderground v.1.15,2013-01-16 08:12:00,
2013-01-16 00:17:00,32.7,29.8,30.70,ENE,58,0.0,2.0,89,0.00,,,0.00,0,Wunderground v.1.15,2013-01-16 08:17:00,
2013-01-16 00:22:00,32.8,29.9,30.70,ENE,58,1.0,2.0,89,0.00,,,0.00,0,Wunderground v.1.15,2013-01-16 08:22:00,
2013-01-16 00:27:00,32.8,30.2,30.70,ENE,58,1.0,2.0,90,0.00,,,0.00,0,Wunderground v.1.15,2013-01-16 08:27:00,
2013-01-16 00:32:00,32.7,29.8,30.70,ENE,58,0.0,1.0,89,0.00,,,0.00,0,Wunderground v.1.15,2013-01-16 08:32:00,
2013-01-16 00:37:00,32.6,29.7,30.70,ENE,58,0.0,1.0,89,0.00,,,0.00,0,Wunderground v.1.15,2013-01-16 08:37:00,
2013-01-16 00:42:00,32.5,29.6,30.70,ENE,58,0.0,1.0,89,0.00,,,0.00,0,Wunderground v.1.15,2013-01-16 08:42:00,
2013-01-16 00:47:00,32.4,29.5,30.70,ENE,58,0.0,1.0,89,0.00,,,0.00,0,Wunderground v.1.15,2013-01-16 08:47:00,
2013-01-16 00:52:00,32.4,29.5,30.70,ENE,58,1.0,2.0,89,0.00,,,0.00,0,Wunderground v.1.15,2013-01-16 08:52:00,
2013-01-16 00:57:00,32.4,29.8,30.70,ENE,64,1.0,2.0,90,0.00,,,0.00,0,Wunderground v.1.15,2013-01-16 08:57:00,
2013-01-16 01:02:00,32.5,29.9,30.70,ENE,64,0.0,2.0,90,0.00,,,0.00,0,Wunderground v.1.15,2013-01-16 09:02:00,
2013-01-16 01:07:00,32.6,30.0,30.70,ENE,64,1.0,2.0,90,0.00,,,0.00,0,Wunderground v.1.15,2013-01-16 09:07:00,
2013-01-16 01:12:00,32.5,29.9,30.71,ENE,64,0.0,1.0,90,0.00,,,0.00,0,Wunderground v.1.15,2013-01-16 09:12:00,
2013-01-16 01:17:00,32.5,29.9,30.70,ENE,64,1.0,1.0,90,0.00,,,0.00,0,Wunderground v.1.15,2013-01-16 09:17:00,
2013-01-16 01:22:00,32.4,29.8,30.70,ENE,64,0.0,2.0,90,0.00,,,0.00,0,Wunderground v.1.15,2013-01-16 09:22:00,
2013-01-16 01:27:00,32.4,29.8,30.70,ENE,64,1.0,2.0,90,0.00,,,0.00,0,Wunderground v.1.15,2013-01-16 09:27:00,
2013-01-16 01:32:00,32.4,29.8,30.70,ENE,64,0.0,1.0,90,0.00,,,0.00,0,Wunderground v.1.15,2013-01-16 09:32:00,
2013-01-16 01:37:00,32.3,29.7,30.70,ENE,64,1.0,2.0,90,0.00,,,0.00,0,Wunderground v.1.15,2013-01-16 09:37:00,
2013-01-16 01:42:00,32.3,29.7,30.70,ENE,64,2.0,2.0,90,0.00,,,0.00,0,Wunderground v.1.15,2013-01-16 09:42:00,
2013-01-16 01:47:00,32.3,29.7,30.70,ENE,64,0.0,2.0,90,0.00,,,0.00,0,Wunderground v.1.15,2013-01-16 09:47:00,
2013-01-16 01:52:00,32.3,29.7,30.70,ENE,64,0.0,1.0,90,0.00,,,0.00,0,Wunderground v.1.15,2013-01-16 09:52:00,
2013-01-16 01:57:00,32.3,29.7,30.70,ENE,64,1.0,2.0,90,0.00,,,0.00,0,Wunderground v.1.15,2013-01-16 09:57:00,
2013-01-16 02:02:00,32.3,30.0,30.70,ENE,65,1.0,3.0,91,0.00,,,0.00,0,Wunderground v.1.15,2013-01-16 10:02:00,
2013-01-16 02:07:00,32.3,30.0,30.70,ENE,65,1.0,3.0,91,0.00,,,0.00,0,Wunderground v.1.15,2013-01-16 10:07:00,
2013-01-16 02:12:00,32.3,30.0,30.70,ENE,65,0.0,1.0,91,0.00,,,0.00,0,Wunderground v.1.15,2013-01-16 10:12:00,
2013-01-16 02:17:00,32.2,29.9,30.70,ENE,65,0.0,1.0,91,0.00,,,0.00,0,Wunderground v.1.15,2013-01-16 10:17:00,
2013-01-16 02:22:00,32.2,29.9,30.70,ENE,65,0.0,2.0,91,0.00,,,0.00,0,Wunderground v.1.15,2013-01-16 10:22:00,
2013-01-16 02:27:00,32.1,29.8,30.70,ENE,65,1.0,2.0,91,0.00,,,0.00,0,Wunderground v.1.15,2013-01-16 10:27:00,
2013-01-16 02:32:00,32.0,29.7,30.71,ENE,65,1.0,2.0,91,0.00,,,0.00,0,Wunderground v.1.15,2013-01-16 10:32:00,
2013-01-16 02:37:00,32.0,29.7,30.71,ENE,65,0.0,2.0,91,0.00,,,0.00,0,Wunderground v.1.15,2013-01-16 10:37:00,
2013-01-16 02:42:00,31.9,29.6,30.71,ENE,65,1.0,1.0,91,0.00,,,0.00,0,Wunderground v.1.15,2013-01-16 10:42:00,
2013-01-16 02:47:00,31.9,29.6,30.71,ENE,65,1.0,2.0,91,0.00,,,0.00,0,Wunderground v.1.15,2013-01-16 10:47:00,
2013-01-16 02:52:00,31.8,29.5,30.71,ENE,65,0.0,1.0,91,0.00,,,0.00,0,Wunderground v.1.15,2013-01-16 10:52:00,
2013-01-16 02:57:00,31.7,29.4,30.71,ENE,65,0.0,2.0,91,0.00,,,0.00,0,Wunderground v.1.15,2013-01-16 10:57:00,
2013-01-16 03:02:00,31.7,29.6,30.71,ENE,65,0.0,0.0,92,0.00,,,0.00,0,Wunderground v.1.15,2013-01-16 11:02:00,
2013-01-16 03:07:00,31.7,29.6,30.71,ENE,65,0.0,1.0,92,0.00,,,0.00,0,Wunderground v.1.15,2013-01-16 11:07:00,
2013-01-16 03:12:00,31.7,29.6,30.70,ENE,65,0.0,1.0,92,0.00,,,0.00,0,Wunderground v.1.15,2013-01-16 11:12:00,
2013-01-16 03:17:00,31.7,29.6,30.71,ENE,65,0.0,1.0,92,0.00,,,0.00,0,Wunderground v.1.15,2013-01-16 11:17:00,
2013-01-16 03:22:00,31.5,29.4,30.71,ENE,65,0.0,0.0,92,0.00,,,0.00,0,Wunderground v.1.15,2013-01-16 11:22:00,
2013-01-16 03:27:00,31.5,29.4,30.71,ENE,65,0.0,1.0,92,0.00,,,0.00,0,Wunderground v.1.15,2013-01-16 11:27:00,
2013-01-16 03:32:00,31.3,29.2,30.71,ENE,65,1.0,1.0,92,0.00,,,0.00,0,Wunderground v.1.15,2013-01-16 11:32:00,
2013-01-16 03:37:00,31.2,29.1,30.70,ENE,65,0.0,1.0,92,0.00,,,0.00,0,Wunderground v.1.15,2013-01-16 11:37:00,
2013-01-16 03:42:00,31.2,29.1,30.70,ENE,65,0.0,1.0,92,0.00,,,0.00,0,Wunderground v.1.15,2013-01-16 11:42:00,
2013-01-16 03:47:00,31.1,29.0,30.70,ENE,65,1.0,1.0,92,0.00,,,0.00,0,Wunderground v.1.15,2013-01-16 11:47:00,
2013-01-16 03:52:00,31.1,29.0,30.70,ENE,65,0.0,1.0,92,0.00,,,0.00,0,Wunderground v.1.15,2013-01-16 11:52:00,
2013-01-16 03:57:00,31.1,29.0,30.70,ENE,65,1.0,1.0,92,0.00,,,0.00,0,Wunderground v.1.15,2013-01-16 11:57:00,
2013-01-16 04:02:00,31.1,29.0,30.70,ENE,65,0.0,2.0,92,0.00,,,0.00,0,Wunderground v.1.15,2013-01-16 12:02:00,
2013-01-16 04:07:00,31.0,29.2,30.70,ENE,65,1.0,2.0,93,0.00,,,0.00,0,Wunderground v.1.15,2013-01-16 12:07:00,
2013-01-16 04:12:00,31.1,29.3,30.70,ENE,65,0.0,1.0,93,0.00,,,0.00,0,Wunderground v.1.15,2013-01-16 12:12:00,
2013-01-16 04:17:00,31.1,29.3,30.70,ENE,65,0.0,1.0,93,0.00,,,0.00,0,Wunderground v.1.15,2013-01-16 12:17:00,
2013-01-16 04:22:00,31.1,29.3,30.70,ENE,65,0.0,0.0,93,0.00,,,0.00,0,Wunderground v.1.15,2013-01-16 12:22:00,
2013-01-16 04:27:00,31.1,29.3,30.70,ENE,65,0.0,0.0,93,0.00,,,0.00,0,Wunderground v.1.15,2013-01-16 12:27:00,
2013-01-16 04:32:00,31.1,29.3,30.69,ENE,65,0.0,0.0,93,0.00,,,0.00,0,Wunderground v.1.15,2013-01-16 12:32:00,
2013-01-16 04:37:00,31.0,29.2,30.69,ENE,65,0.0,2.0,93,0.00,,,0.00,0,Wunderground v.1.15,2013-01-16 12:37:00,
2013-01-16 04:42:00,31.0,29.2,30.69,ENE,65,0.0,2.0,93,0.00,,,0.00,0,Wunderground v.1.15,2013-01-16 12:42:00,
2013-01-16 04:47:00,31.0,29.2,30.69,ENE,65,0.0,2.0,93,0.00,,,0.00,0,Wunderground v.1.15,2013-01-16 12:47:00,
2013-01-16 04:52:00,31.1,29.3,30.69,ENE,66,0.0,2.0,93,0.00,,,0.00,0,Wunderground v.1.15,2013-01-16 12:52:00,
2013-01-16 04:57:00,31.1,29.3,30.69,ENE,66,0.0,2.0,93,0.00,,,0.00,0,Wunderground v.1.15,2013-01-16 12:57:00,
2013-01-16 05:02:00,31.1,29.3,30.69,ENE,66,0.0,1.0,93,0.00,,,0.00,0,Wunderground v.1.15,2013-01-16 13:02:00,
2013-01-16 05:07:00,31.1,29.3,30.69,ENE,66,0.0,3.0,93,0.00,,,0.00,0,Wunderground v.1.15,2013-01-16 13:07:00,
2013-01-16 05:12:00,31.1,29.6,30.69,ENE,67,0.0,2.0,94,0.00,,,0.00,0,Wunderground v.1.15,2013-01-16 13:12:00,
2013-01-16 05:17:00,31.1,29.6,30.69,ENE,67,1.0,2.0,94,0.00,,,0.00,0,Wunderground v.1.15,2013-01-16 13:17:00,
2013-01-16 05:22:00,31.1,29.6,30.68,ENE,67,1.0,1.0,94,0.00,,,0.00,0,Wunderground v.1.15,2013-01-16 13:22:00,
2013-01-16 05:27:00,31.2,29.7,30.68,ENE,67,0.0,2.0,94,0.00,,,0.00,0,Wunderground v.1.15,2013-01-16 13:27:00,
2013-01-16 05:32:00,31.1,29.6,30.68,ENE,67,0.0,0.0,94,0.00,,,0.00,0,Wunderground v.1.15,2013-01-16 13:32:00,
2013-01-16 05:37:00,31.1,29.6,30.68,ENE,67,0.0,1.0,94,0.00,,,0.00,0,Wunderground v.1.15,2013-01-16 13:37:00,
2013-01-16 05:42:00,31.1,29.6,30.68,ENE,67,2.0,2.0,94,0.00,,,0.00,0,Wunderground v.1.15,2013-01-16 13:42:00,
2013-01-16 05:47:00,31.1,29.6,30.68,ENE,67,0.0,2.0,94,0.00,,,0.00,0,Wunderground v.1.15,2013-01-16 13:47:00,
2013-01-16 05:52:00,31.1,29.6,30.68,ENE,67,1.0,1.0,94,0.00,,,0.00,0,Wunderground v.1.15,2013-01-16 13:52:00,
2013-01-16 05:57:00,31.1,29.6,30.68,ENE,67,0.0,2.0,94,0.00,,,0.00,0,Wunderground v.1.15,2013-01-16 13:57:00,
2013-01-16 06:02:00,31.2,29.7,30.68,ENE,67,1.0,2.0,94,0.00,,,0.00,0,Wunderground v.1.15,2013-01-16 14:02:00,
2013-01-16 06:07:00,31.2,29.7,30.68,ENE,67,1.0,3.0,94,0.00,,,0.00,0,Wunderground v.1.15,2013-01-16 14:07:00,
2013-01-16 06:12:00,31.3,29.8,30.68,ENE,71,2.0,3.0,94,0.00,,,0.00,0,Wunderground v.1.15,2013-01-16 14:12:00,
2013-01-16 06:17:00,31.1,29.6,30.68,ENE,77,3.0,4.0,94,0.00,,,0.00,0,Wunderground v.1.15,2013-01-16 14:17:00,
2013-01-16 06:22:00,30.5,29.0,30.68,ENE,74,3.0,3.0,94,0.00,,,0.00,0,Wunderground v.1.15,2013-01-16 14:22:00,
2013-01-16 06:27:00,30.2,28.7,30.67,NE,53,1.0,4.0,94,0.00,,,0.00,0,Wunderground v.1.15,2013-01-16 14:27:00,
2013-01-16 06:32:00,30.0,28.5,30.67,NE,53,1.0,3.0,94,0.00,,,0.00,0,Wunderground v.1.15,2013-01-16 14:32:00,
2013-01-16 06:37:00,29.9,28.4,30.67,NE,53,0.0,3.0,94,0.00,,,0.00,0,Wunderground v.1.15,2013-01-16 14:37:00,
2013-01-16 06:42:00,29.8,28.3,30.67,NE,53,1.0,1.0,94,0.00,,,0.00,0,Wunderground v.1.15,2013-01-16 14:42:00,
2013-01-16 06:47:00,29.7,28.2,30.67,NE,53,0.0,2.0,94,0.00,,,0.00,0,Wunderground v.1.15,2013-01-16 14:47:00,
2013-01-16 06:52:00,29.7,28.2,30.67,NE,53,1.0,2.0,94,0.00,,,0.00,0,Wunderground v.1.15,2013-01-16 14:52:00,
2013-01-16 06:57:00,29.7,28.2,30.67,NE,53,2.0,2.0,94,0.00,,,0.00,0,Wunderground v.1.15,2013-01-16 14:57:00,
2013-01-16 07:02:00,29.6,28.1,30.67,NE,53,0.0,1.0,94,0.00,,,0.00,0,Wunderground v.1.15,2013-01-16 15:02:00,
2013-01-16 07:07:00,29.6,28.1,30.66,NE,53,0.0,1.0,94,0.00,,,0.00,0,Wunderground v.1.15,2013-01-16 15:07:00,
2013-01-16 07:12:00,29.7,28.4,30.66,NE,53,0.0,1.0,95,0.00,,,0.00,0,Wunderground v.1.15,2013-01-16 15:12:00,
2013-01-16 07:16:00,29.8,28.3,30.66,NE,53,0.0,2.0,94,0.00,,,0.00,0,Wunderground v.1.15,2013-01-16 15:16:00,
2013-01-16 07:21:00,29.8,28.5,30.67,NE,53,0.0,2.0,95,0.00,,,0.00,0,Wunderground v.1.15,2013-01-16 15:21:00,
2013-01-16 07:26:00,29.9,28.6,30.67,NE,53,0.0,2.0,95,0.00,,,0.00,0,Wunderground v.1.15,2013-01-16 15:26:00,
2013-01-16 07:31:00,29.9,28.6,30.67,NE,53,0.0,1.0,95,0.00,,,0.00,0,Wunderground v.1.15,2013-01-16 15:31:00,
2013-01-16 07:36:00,30.0,28.7,30.67,NE,53,0.0,2.0,95,0.00,,,0.00,0,Wunderground v.1.15,2013-01-16 15:36:00,
2013-01-16 07:41:00,30.1,28.8,30.67,NE,53,0.0,1.0,95,0.00,,,0.00,0,Wunderground v.1.15,2013-01-16 15:41:00,
2013-01-16 07:46:00,30.2,28.9,30.66,NE,53,0.0,2.0,95,0.00,,,0.00,0,Wunderground v.1.15,2013-01-16 15:46:00,
2013-01-16 07:51:00,30.3,29.0,30.67,NE,54,0.0,2.0,95,0.00,,,0.00,0,Wunderground v.1.15,2013-01-16 15:51:00,
2013-01-16 07:56:00,30.3,29.0,30.67,NE,54,0.0,2.0,95,0.00,,,0.00,0,Wunderground v.1.15,2013-01-16 15:56:00,
2013-01-16 08:01:00,30.4,29.1,30.67,NE,54,0.0,1.0,95,0.00,,,0.00,5,Wunderground v.1.15,2013-01-16 16:01:00,
2013-01-16 08:06:00,30.5,29.2,30.67,NE,54,0.0,2.0,95,0.00,,,0.00,7,Wunderground v.1.15,2013-01-16 16:06:00,
2013-01-16 08:11:00,30.7,29.4,30.67,NE,54,0.0,1.0,95,0.00,,,0.00,12,Wunderground v.1.15,2013-01-16 16:11:00,
2013-01-16 08:16:00,30.8,29.5,30.67,NE,54,1.0,2.0,95,0.00,,,0.00,11,Wunderground v.1.15,2013-01-16 16:16:00,
2013-01-16 08:21:00,30.9,29.6,30.67,NE,54,0.0,1.0,95,0.00,,,0.00,14,Wunderground v.1.15,2013-01-16 16:21:00,
2013-01-16 08:26:00,31.0,29.7,30.67,NE,54,1.0,2.0,95,0.00,,,0.00,25,Wunderground v.1.15,2013-01-16 16:26:00,
2013-01-16 08:31:00,31.0,29.7,30.67,NE,54,0.0,1.0,95,0.00,,,0.00,23,Wunderground v.1.15,2013-01-16 16:31:00,
2013-01-16 08:36:00,31.0,29.7,30.67,NE,54,0.0,1.0,95,0.00,,,0.00,28,Wunderground v.1.15,2013-01-16 16:36:00,
2013-01-16 08:41:00,31.0,29.7,30.67,NE,54,0.0,0.0,95,0.00,,,0.00,30,Wunderground v.1.15,2013-01-16 16:41:00,
2013-01-16 08:46:00,31.0,29.7,30.67,NE,54,0.0,1.0,95,0.00,,,0.00,32,Wunderground v.1.15,2013-01-16 16:46:00,
2013-01-16 08:51:00,30.9,29.6,30.67,NE,54,0.0,1.0,95,0.00,,,0.00,32,Wunderground v.1.15,2013-01-16 16:51:00,
2013-01-16 08:56:00,30.9,29.6,30.67,NE,54,0.0,1.0,95,0.00,,,0.00,30,Wunderground v.1.15,2013-01-16 16:56:00,
2013-01-16 09:01:00,31.2,29.9,30.67,NE,54,0.0,0.0,95,0.00,,,0.00,76,Wunderground v.1.15,2013-01-16 17:01:00,
2013-01-16 09:06:00,32.3,31.3,30.67,NE,54,0.0,1.0,96,0.00,,,0.00,84,Wunderground v.1.15,2013-01-16 17:06:00,
2013-01-16 09:11:00,32.8,31.5,30.67,NE,54,1.0,1.0,95,0.00,,,0.00,88,Wunderground v.1.15,2013-01-16 17:11:00,
2013-01-16 09:16:00,32.9,31.4,30.67,NE,54,0.0,2.0,94,0.00,,,0.00,86,Wunderground v.1.15,2013-01-16 17:16:00,
2013-01-16 09:21:00,33.7,32.2,30.67,NE,54,1.0,1.0,94,0.00,,,0.00,97,Wunderground v.1.15,2013-01-16 17:21:00,
2013-01-16 09:26:00,34.3,32.2,30.67,NE,54,0.0,2.0,92,0.00,,,0.00,104,Wunderground v.1.15,2013-01-16 17:26:00,
2013-01-16 09:31:00,34.9,32.5,30.66,NE,54,1.0,3.0,91,0.00,,,0.00,114,Wunderground v.1.15,2013-01-16 17:31:00,
2013-01-16 09:36:00,35.5,32.6,30.66,ENE,67,2.0,3.0,89,0.00,,,0.00,123,Wunderground v.1.15,2013-01-16 17:36:00,
2013-01-16 09:41:00,36.0,33.1,30.66,East,79,1.0,3.0,89,0.00,,,0.00,130,Wunderground v.1.15,2013-01-16 17:41:00,
2013-01-16 09:46:00,36.0,33.4,30.66,East,80,2.0,3.0,90,0.00,,,0.00,137,Wunderground v.1.15,2013-01-16 17:46:00,
2013-01-16 09:51:00,35.9,33.3,30.65,ESE,106,2.0,2.0,90,0.00,,,0.00,146,Wunderground v.1.15,2013-01-16 17:51:00,
2013-01-16 09:56:00,35.7,32.8,30.65,SE,132,1.0,3.0,89,0.00,,,0.00,156,Wunderground v.1.15,2013-01-16 17:56:00,
2013-01-16 10:01:00,35.7,32.8,30.65,SE,132,1.0,2.0,89,0.00,,,0.00,163,Wunderground v.1.15,2013-01-16 18:01:00,
2013-01-16 10:06:00,36.1,33.5,30.65,SE,132,1.0,2.0,90,0.00,,,0.00,172,Wunderground v.1.15,2013-01-16 18:06:00,
2013-01-16 10:11:00,36.0,33.1,30.65,SE,139,1.0,2.0,89,0.00,,,0.00,183,Wunderground v.1.15,2013-01-16 18:11:00,
2013-01-16 10:16:00,36.2,33.5,30.65,SE,139,0.0,2.0,90,0.00,,,0.00,192,Wunderground v.1.15,2013-01-16 18:16:00,
2013-01-16 10:21:00,36.6,33.7,30.64,SE,139,1.0,2.0,89,0.00,,,0.00,199,Wunderground v.1.15,2013-01-16 18:21:00,
2013-01-16 10:26:00,36.5,33.6,30.64,SE,140,1.0,3.0,89,0.00,,,0.00,207,Wunderground v.1.15,2013-01-16 18:26:00,
2013-01-16 10:31:00,36.7,33.5,30.64,SSE,155,1.0,3.0,88,0.00,,,0.00,213,Wunderground v.1.15,2013-01-16 18:31:00,
2013-01-16 10:36:00,37.4,34.2,30.64,South,175,2.0,3.0,88,0.00,,,0.00,221,Wunderground v.1.15,2013-01-16 18:36:00,
2013-01-16 10:41:00,37.4,33.6,30.64,South,182,3.0,3.0,86,0.00,,,0.00,227,Wunderground v.1.15,2013-01-16 18:41:00,
2013-01-16 10:46:00,36.7,33.5,30.64,SSE,161,2.0,3.0,88,0.00,,,0.00,230,Wunderground v.1.15,2013-01-16 18:46:00,
2013-01-16 10:51:00,36.9,33.7,30.64,SSE,161,1.0,3.0,88,0.00,,,0.00,239,Wunderground v.1.15,2013-01-16 18:51:00,
2013-01-16 10:56:00,36.8,33.9,30.64,SSE,156,2.0,3.0,89,0.00,,,0.00,241,Wunderground v.1.15,2013-01-16 18:56:00,
2013-01-16 11:01:00,37.1,34.2,30.64,SSE,156,1.0,2.0,89,0.00,,,0.00,248,Wunderground v.1.15,2013-01-16 19:01:00,
2013-01-16 11:06:00,37.4,33.9,30.64,SSW,213,1.0,3.0,87,0.00,,,0.00,253,Wunderground v.1.15,2013-01-16 19:06:00,
2013-01-16 11:11:00,37.9,34.1,30.64,SW,223,2.0,3.0,86,0.00,,,0.00,255,Wunderground v.1.15,2013-01-16 19:11:00,
2013-01-16 11:16:00,39.2,35.7,30.63,SW,232,1.0,3.0,87,0.00,,,0.00,260,Wunderground v.1.15,2013-01-16 19:16:00,
2013-01-16 11:21:00,38.4,34.9,30.63,SSE,157,1.0,3.0,87,0.00,,,0.00,262,Wunderground v.1.15,2013-01-16 19:21:00,
2013-01-16 11:26:00,38.2,34.7,30.63,SSE,153,2.0,4.0,87,0.00,,,0.00,271,Wunderground v.1.15,2013-01-16 19:26:00,
2013-01-16 11:31:00,38.7,35.2,30.63,SSE,157,0.0,2.0,87,0.00,,,0.00,274,Wunderground v.1.15,2013-01-16 19:31:00,
2013-01-16 11:36:00,40.0,35.9,30.63,SSW,201,2.0,3.0,85,0.00,,,0.00,278,Wunderground v.1.15,2013-01-16 19:36:00,
2013-01-16 11:41:00,39.4,35.0,30.63,SW,219,2.0,3.0,84,0.00,,,0.00,274,Wunderground v.1.15,2013-01-16 19:41:00,
2013-01-16 11:46:00,40.2,35.8,30.63,South,187,1.0,3.0,84,0.00,,,0.00,281,Wunderground v.1.15,2013-01-16 19:46:00,
2013-01-16 11:51:00,40.3,35.5,30.63,SSE,164,1.0,3.0,83,0.00,,,0.00,281,Wunderground v.1.15,2013-01-16 19:51:00,
2013-01-16 11:56:00,41.1,36.0,30.63,SW,229,3.0,4.0,82,0.00,,,0.00,283,Wunderground v.1.15,2013-01-16 19:56:00,
2013-01-16 12:01:00,41.4,36.0,30.63,South,186,2.0,3.0,81,0.00,,,0.00,285,Wunderground v.1.15,2013-01-16 20:01:00,
2013-01-16 12:06:00,40.9,35.8,30.63,SW,232,2.0,5.0,82,0.00,,,0.00,283,Wunderground v.1.15,2013-01-16 20:06:00,
2013-01-16 12:11:00,41.3,35.9,30.63,SSW,199,2.0,3.0,81,0.00,,,0.00,285,Wunderground v.1.15,2013-01-16 20:11:00,
2013-01-16 12:16:00,41.2,36.1,30.62,SW,227,0.0,5.0,82,0.00,,,0.00,288,Wunderground v.1.15,2013-01-16 20:16:00,
2013-01-16 12:21:00,40.8,35.7,30.62,South,171,2.0,3.0,82,0.00,,,0.00,288,Wunderground v.1.15,2013-01-16 20:21:00,
2013-01-16 12:26:00,41.1,36.3,30.62,South,173,1.0,3.0,83,0.00,,,0.00,285,Wunderground v.1.15,2013-01-16 20:26:00,
2013-01-16 12:31:00,41.2,35.8,30.62,SSE,153,1.0,2.0,81,0.00,,,0.00,285,Wunderground v.1.15,2013-01-16 20:31:00,
2013-01-16 12:36:00,41.3,36.2,30.61,WSW,238,2.0,4.0,82,0.00,,,0.00,285,Wunderground v.1.15,2013-01-16 20:36:00,
2013-01-16 12:41:00,41.9,36.5,30.61,WSW,240,2.0,5.0,81,0.00,,,0.00,283,Wunderground v.1.15,2013-01-16 20:41:00,
2013-01-16 12:46:00,41.8,36.4,30.61,South,176,2.0,5.0,81,0.00,,,0.00,281,Wunderground v.1.15,2013-01-16 20:46:00,
2013-01-16 12:51:00,41.9,36.5,30.60,SSE,163,2.0,3.0,81,0.00,,,0.00,279,Wunderground v.1.15,2013-01-16 20:51:00,
2013-01-16 12:56:00,42.1,36.7,30.60,SSE,157,3.0,6.0,81,0.00,,,0.00,276,Wunderground v.1.15,2013-01-16 20:56:00,
2013-01-16 13:01:00,41.5,36.1,30.60,SSE,157,2.0,3.0,81,0.00,,,0.00,276,Wunderground v.1.15,2013-01-16 21:01:00,
2013-01-16 13:06:00,41.6,36.2,30.60,SW,227,3.0,4.0,81,0.00,,,0.00,272,Wunderground v.1.15,2013-01-16 21:06:00,
2013-01-16 13:11:00,42.2,36.8,30.60,South,170,2.0,3.0,81,0.00,,,0.00,271,Wunderground v.1.15,2013-01-16 21:11:00,
2013-01-16 13:16:00,42.5,36.4,30.60,WSW,237,3.0,4.0,79,0.00,,,0.00,265,Wunderground v.1.15,2013-01-16 21:16:00,
2013-01-16 13:21:00,42.9,36.8,30.60,WSW,237,1.0,3.0,79,0.00,,,0.00,264,Wunderground v.1.15,2013-01-16 21:21:00,
2013-01-16 13:26:00,43.9,37.2,30.60,WSW,241,2.0,4.0,77,0.00,,,0.00,258,Wunderground v.1.15,2013-01-16 21:26:00,
2013-01-16 13:31:00,43.6,36.5,30.60,WSW,238,1.0,2.0,76,0.00,,,0.00,253,Wunderground v.1.15,2013-01-16 21:31:00,
2013-01-16 13:36:00,43.3,36.2,30.59,SSE,154,2.0,3.0,76,0.00,,,0.00,248,Wunderground v.1.15,2013-01-16 21:36:00,
2013-01-16 13:41:00,43.4,36.7,30.59,South,187,2.0,2.0,77,0.00,,,0.00,243,Wunderground v.1.15,2013-01-16 21:41:00,
2013-01-16 13:46:00,44.1,36.7,30.59,SW,229,0.0,4.0,75,0.00,,,0.00,237,Wunderground v.1.15,2013-01-16 21:46:00,
2013-01-16 13:51:00,43.8,36.0,30.59,SSE,162,3.0,3.0,74,0.00,,,0.00,229,Wunderground v.1.15,2013-01-16 21:51:00,
2013-01-16 13:56:00,43.5,36.4,30.59,WSW,240,2.0,4.0,76,0.00,,,0.00,223,Wunderground v.1.15,2013-01-16 21:56:00,
2013-01-16 14:01:00,44.2,36.4,30.59,WSW,252,3.0,3.0,74,0.00,,,0.00,218,Wunderground v.1.15,2013-01-16 22:01:00,
2013-01-16 14:06:00,44.3,36.5,30.59,SSW,198,5.0,5.0,74,0.00,,,0.00,211,Wunderground v.1.15,2013-01-16 22:06:00,
2013-01-16 14:11:00,44.0,36.2,30.59,SW,225,1.0,3.0,74,0.00,,,0.00,202,Wunderground v.1.15,2013-01-16 22:11:00,
2013-01-16 14:16:00,44.0,35.9,30.59,SW,228,1.0,5.0,73,0.00,,,0.00,195,Wunderground v.1.15,2013-01-16 22:16:00,
2013-01-16 14:21:00,43.9,35.8,30.59,WSW,253,3.0,5.0,73,0.00,,,0.00,188,Wunderground v.1.15,2013-01-16 22:21:00,
2013-01-16 14:26:00,44.3,36.2,30.59,WSW,245,3.0,5.0,73,0.00,,,0.00,179,Wunderground v.1.15,2013-01-16 22:26:00,
2013-01-16 14:31:00,44.1,36.0,30.59,West,263,5.0,5.0,73,0.00,,,0.00,174,Wunderground v.1.15,2013-01-16 22:31:00,
2013-01-16 14:36:00,43.3,35.2,30.59,West,259,2.0,5.0,73,0.00,,,0.00,163,Wunderground v.1.15,2013-01-16 22:36:00,
2013-01-16 14:41:00,43.6,35.5,30.59,WSW,257,1.0,3.0,73,0.00,,,0.00,153,Wunderground v.1.15,2013-01-16 22:41:00,
2013-01-16 14:46:00,44.2,36.1,30.59,WSW,248,1.0,3.0,73,0.00,,,0.00,144,Wunderground v.1.15,2013-01-16 22:46:00,
2013-01-16 14:51:00,43.9,35.5,30.59,WSW,248,1.0,2.0,72,0.00,,,0.00,134,Wunderground v.1.15,2013-01-16 22:51:00,
2013-01-16 14:56:00,44.2,35.7,30.59,WSW,248,1.0,2.0,72,0.00,,,0.00,125,Wunderground v.1.15,2013-01-16 22:56:00,
2013-01-16 15:01:00,44.2,35.7,30.59,WSW,250,2.0,2.0,72,0.00,,,0.00,118,Wunderground v.1.15,2013-01-16 23:01:00,
2013-01-16 15:06:00,44.4,35.6,30.59,WSW,250,2.0,2.0,71,0.00,,,0.00,105,Wunderground v.1.15,2013-01-16 23:06:00,
2013-01-16 15:11:00,44.5,35.7,30.59,WSW,251,0.0,1.0,71,0.00,,,0.00,98,Wunderground v.1.15,2013-01-16 23:11:00,
2013-01-16 15:16:00,45.0,36.2,30.59,WSW,251,0.0,2.0,71,0.00,,,0.00,90,Wunderground v.1.15,2013-01-16 23:16:00,
2013-01-16 15:21:00,45.0,35.4,30.59,WSW,251,1.0,2.0,69,0.00,,,0.00,81,Wunderground v.1.15,2013-01-16 23:21:00,
2013-01-16 15:26:00,44.7,35.5,30.59,WSW,253,1.0,2.0,70,0.00,,,0.00,72,Wunderground v.1.15,2013-01-16 23:26:00,
2013-01-16 15:31:00,44.6,35.1,30.58,NW,309,2.0,2.0,69,0.00,,,0.00,63,Wunderground v.1.15,2013-01-16 23:31:00,
2013-01-16 15:36:00,44.3,35.1,30.59,NNW,333,0.0,3.0,70,0.00,,,0.00,56,Wunderground v.1.15,2013-01-16 23:36:00,
2013-01-16 15:41:00,44.2,35.0,30.58,North,355,2.0,2.0,70,0.00,,,0.00,47,Wunderground v.1.15,2013-01-16 23:41:00,
2013-01-16 15:46:00,43.8,34.6,30.58,North,355,2.0,4.0,70,0.00,,,0.00,40,Wunderground v.1.15,2013-01-16 23:46:00,
2013-01-16 15:51:00,43.7,34.9,30.58,NNE,13,0.0,2.0,71,0.00,,,0.00,33,Wunderground v.1.15,2013-01-16 23:51:00,
2013-01-16 15:56:00,43.4,34.6,30.58,NNE,30,0.0,4.0,71,0.00,,,0.00,26,Wunderground v.1.15,2013-01-16 23:56:00,
2013-01-16 16:01:00,43.3,34.9,30.58,North,355,0.0,2.0,72,0.00,,,0.00,21,Wunderground v.1.15,2013-01-17 00:01:00,
2013-01-16 16:06:00,43.0,34.6,30.58,NE,34,1.0,4.0,72,0.00,,,0.00,19,Wunderground v.1.15,2013-01-17 00:06:00,
2013-01-16 16:11:00,42.9,34.8,30.58,East,84,0.0,1.0,73,0.00,,,0.00,18,Wunderground v.1.15,2013-01-17 00:11:00,
2013-01-16 16:16:00,42.7,34.6,30.58,NE,39,0.0,3.0,73,0.00,,,0.00,16,Wunderground v.1.15,2013-01-17 00:16:00,
2013-01-16 16:21:00,42.5,34.5,30.58,NE,35,1.0,3.0,73,0.00,,,0.00,14,Wunderground v.1.15,2013-01-17 00:21:00,
2013-01-16 16:26:00,42.0,34.3,30.58,NE,51,1.0,3.0,74,0.00,,,0.00,12,Wunderground v.1.15,2013-01-17 00:26:00,
2013-01-16 16:31:00,41.7,34.0,30.58,NE,47,1.0,1.0,74,0.00,,,0.00,11,Wunderground v.1.15,2013-01-17 00:31:00,
2013-01-16 16:35:00,41.4,34.1,30.57,NE,47,0.0,3.0,75,0.00,,,0.00,9,Wunderground v.1.15,2013-01-17 00:35:00,
2013-01-16 16:40:00,41.3,34.0,30.57,NE,48,0.0,1.0,75,0.00,,,0.00,7,Wunderground v.1.15,2013-01-17 00:40:00,
2013-01-16 16:45:00,41.0,34.0,30.57,NE,48,2.0,4.0,76,0.00,,,0.00,5,Wunderground v.1.15,2013-01-17 00:45:00,
2013-01-16 16:50:00,40.8,33.8,30.57,NE,48,1.0,3.0,76,0.00,,,0.00,0,Wunderground v.1.15,2013-01-17 00:50:00,
2013-01-16 16:55:00,40.7,33.7,30.57,NE,46,0.0,3.0,76,0.00,,,0.00,0,Wunderground v.1.15,2013-01-17 00:55:00,
2013-01-16 17:00:00,40.3,33.7,30.57,NE,46,0.0,1.0,77,0.00,,,0.00,0,Wunderground v.1.15,2013-01-17 01:00:00,
2013-01-16 17:05:00,40.0,33.4,30.57,NE,46,1.0,3.0,77,0.00,,,0.00,0,Wunderground v.1.15,2013-01-17 01:05:00,
2013-01-16 17:10:00,39.8,33.5,30.57,NE,47,3.0,3.0,78,0.00,,,0.00,0,Wunderground v.1.15,2013-01-17 01:10:00,
2013-01-16 17:15:00,39.7,33.4,30.57,ENE,69,0.0,3.0,78,0.00,,,0.00,0,Wunderground v.1.15,2013-01-17 01:15:00,
2013-01-16 17:20:00,39.6,33.3,30.57,NE,43,0.0,1.0,78,0.00,,,0.00,0,Wunderground v.1.15,2013-01-17 01:20:00,
2013-01-16 17:25:00,39.5,33.2,30.57,NE,44,1.0,3.0,78,0.00,,,0.00,0,Wunderground v.1.15,2013-01-17 01:25:00,
2013-01-16 17:30:00,39.5,33.2,30.57,NE,47,4.0,4.0,78,0.00,,,0.00,0,Wunderground v.1.15,2013-01-17 01:30:00,
2013-01-16 17:35:00,39.4,33.1,30.57,ENE,78,1.0,5.0,78,0.00,,,0.00,0,Wunderground v.1.15,2013-01-17 01:35:00,
2013-01-16 17:40:00,39.4,33.1,30.57,ENE,57,2.0,3.0,78,0.00,,,0.00,0,Wunderground v.1.15,2013-01-17 01:40:00,
2013-01-16 17:45:00,39.2,33.2,30.57,NE,56,2.0,3.0,79,0.00,,,0.00,0,Wunderground v.1.15,2013-01-17 01:45:00,
2013-01-16 17:50:00,39.0,33.0,30.57,NE,55,2.0,2.0,79,0.00,,,0.00,0,Wunderground v.1.15,2013-01-17 01:50:00,
2013-01-16 17:55:00,38.9,32.9,30.57,NE,56,1.0,3.0,79,0.00,,,0.00,0,Wunderground v.1.15,2013-01-17 01:55:00,
2013-01-16 18:00:00,38.7,33.1,30.57,NE,53,1.0,1.0,80,0.00,,,0.00,0,Wunderground v.1.15,2013-01-17 02:00:00,
2013-01-16 18:05:00,38.6,33.0,30.57,NE,52,2.0,3.0,80,0.00,,,0.00,0,Wunderground v.1.15,2013-01-17 02:05:00,
2013-01-16 18:10:00,38.6,33.0,30.58,NE,51,1.0,1.0,80,0.00,,,0.00,0,Wunderground v.1.15,2013-01-17 02:10:00,
2013-01-16 18:15:00,38.5,32.9,30.58,NE,52,0.0,3.0,80,0.00,,,0.00,0,Wunderground v.1.15,2013-01-17 02:15:00,
2013-01-16 18:20:00,38.4,32.8,30.58,NE,53,0.0,1.0,80,0.00,,,0.00,0,Wunderground v.1.15,2013-01-17 02:20:00,
2013-01-16 18:25:00,38.2,32.6,30.57,NE,53,1.0,2.0,80,0.00,,,0.00,0,Wunderground v.1.15,2013-01-17 02:25:00,
2013-01-16 18:30:00,38.0,32.7,30.57,NE,53,0.0,0.0,81,0.00,,,0.00,0,Wunderground v.1.15,2013-01-17 02:30:00,
2013-01-16 18:35:00,37.8,32.5,30.58,NE,53,0.0,1.0,81,0.00,,,0.00,0,Wunderground v.1.15,2013-01-17 02:35:00,
2013-01-16 18:40:00,37.7,32.7,30.57,NE,53,0.0,1.0,82,0.00,,,0.00,0,Wunderground v.1.15,2013-01-17 02:40:00,
2013-01-16 18:45:00,37.6,32.6,30.58,NE,53,1.0,2.0,82,0.00,,,0.00,0,Wunderground v.1.15,2013-01-17 02:45:00,
2013-01-16 18:50:00,37.6,32.6,30.58,NE,53,0.0,0.0,82,0.00,,,0.00,0,Wunderground v.1.15,2013-01-17 02:50:00,
2013-01-16 18:55:00,37.5,32.5,30.58,NE,53,0.0,2.0,82,0.00,,,0.00,0,Wunderground v.1.15,2013-01-17 02:55:00,
2013-01-16 19:00:00,37.5,32.5,30.58,NE,53,1.0,1.0,82,0.00,,,0.00,0,Wunderground v.1.15,2013-01-17 03:00:00,
2013-01-16 19:05:00,37.4,32.4,30.57,NE,53,0.0,2.0,82,0.00,,,0.00,0,Wunderground v.1.15,2013-01-17 03:05:00,
2013-01-16 19:10:00,37.4,32.7,30.58,NE,53,1.0,1.0,83,0.00,,,0.00,0,Wunderground v.1.15,2013-01-17 03:10:00,
2013-01-16 19:15:00,37.4,32.4,30.57,NE,53,0.0,2.0,82,0.00,,,0.00,0,Wunderground v.1.15,2013-01-17 03:15:00,
2013-01-16 19:20:00,37.4,32.7,30.58,NE,53,1.0,1.0,83,0.00,,,0.00,0,Wunderground v.1.15,2013-01-17 03:20:00,
2013-01-16 19:25:00,37.3,32.6,30.57,NE,53,0.0,1.0,83,0.00,,,0.00,0,Wunderground v.1.15,2013-01-17 03:25:00,
2013-01-16 19:30:00,37.0,32.6,30.57,NE,53,0.0,0.0,84,0.00,,,0.00,0,Wunderground v.1.15,2013-01-17 03:30:00,
2013-01-16 19:35:00,36.7,32.3,30.57,NE,53,0.0,1.0,84,0.00,,,0.00,0,Wunderground v.1.15,2013-01-17 03:35:00,
2013-01-16 19:40:00,36.5,32.4,30.57,NE,53,0.0,0.0,85,0.00,,,0.00,0,Wunderground v.1.15,2013-01-17 03:40:00,
2013-01-16 19:45:00,36.5,32.4,30.57,NE,53,0.0,1.0,85,0.00,,,0.00,0,Wunderground v.1.15,2013-01-17 03:45:00,
2013-01-16 19:50:00,36.5,32.4,30.57,NE,53,2.0,2.0,85,0.00,,,0.00,0,Wunderground v.1.15,2013-01-17 03:50:00,
2013-01-16 19:55:00,36.3,32.2,30.57,NE,53,0.0,2.0,85,0.00,,,0.00,0,Wunderground v.1.15,2013-01-17 03:55:00,
2013-01-16 20:00:00,36.1,32.0,30.57,NE,53,0.0,0.0,85,0.00,,,0.00,0,Wunderground v.1.15,2013-01-17 04:00:00,
2013-01-16 20:05:00,35.8,32.0,30.57,NE,53,0.0,1.0,86,0.00,,,0.00,0,Wunderground v.1.15,2013-01-17 04:05:00,
2013-01-16 20:10:00,35.6,31.8,30.57,NE,53,0.0,0.0,86,0.00,,,0.00,0,Wunderground v.1.15,2013-01-17 04:10:00,
2013-01-16 20:15:00,35.6,32.1,30.57,NE,53,0.0,1.0,87,0.00,,,0.00,0,Wunderground v.1.15,2013-01-17 04:15:00,
2013-01-16 20:20:00,35.5,31.7,30.57,NE,53,0.0,0.0,86,0.00,,,0.00,0,Wunderground v.1.15,2013-01-17 04:20:00,
2013-01-16 20:25:00,35.3,31.8,30.57,NE,53,0.0,0.0,87,0.00,,,0.00,0,Wunderground v.1.15,2013-01-17 04:25:00,
2013-01-16 20:30:00,35.1,31.6,30.56,NE,53,0.0,0.0,87,0.00,,,0.00,0,Wunderground v.1.15,2013-01-17 04:30:00,
2013-01-16 20:35:00,34.9,31.4,30.56,NE,53,1.0,1.0,87,0.00,,,0.00,0,Wunderground v.1.15,2013-01-17 04:35:00,
2013-01-16 20:40:00,34.9,31.7,30.56,NE,53,1.0,1.0,88,0.00,,,0.00,0,Wunderground v.1.15,2013-01-17 04:40:00,
2013-01-16 20:45:00,34.9,31.7,30.56,NE,53,1.0,1.0,88,0.00,,,0.00,0,Wunderground v.1.15,2013-01-17 04:45:00,
2013-01-16 20:50:00,35.1,31.9,30.56,NE,53,0.0,0.0,88,0.00,,,0.00,0,Wunderground v.1.15,2013-01-17 04:50:00,
2013-01-16 20:55:00,35.0,31.5,30.56,NE,53,0.0,1.0,87,0.00,,,0.00,0,Wunderground v.1.15,2013-01-17 04:55:00,
2013-01-16 21:00:00,35.0,31.8,30.56,NE,53,0.0,1.0,88,0.00,,,0.00,0,Wunderground v.1.15,2013-01-17 05:00:00,
2013-01-16 21:01:00,35.0,31.8,30.56,NE,53,0.0,0.0,88,0.00,,,0.00,0,Wunderground v.1.15,2013-01-17 05:01:00,
2013-01-16 21:03:00,35.0,31.8,30.56,NE,53,1.0,1.0,88,0.00,,,0.00,0,Wunderground v.1.15,2013-01-17 05:03:00,
2013-01-16 21:08:00,35.1,31.9,30.56,NE,53,0.0,1.0,88,0.00,,,0.00,0,Wunderground v.1.15,2013-01-17 05:08:00,
2013-01-16 21:13:00,35.1,31.9,30.56,NE,53,0.0,2.0,88,0.00,,,0.00,0,Wunderground v.1.15,2013-01-17 05:13:00,
2013-01-16 21:18:00,35.2,32.0,30.56,NE,53,0.0,2.0,88,0.00,,,0.00,0,Wunderground v.1.15,2013-01-17 05:18:00,
2013-01-16 21:23:00,35.2,31.7,30.56,NE,53,0.0,1.0,87,0.00,,,0.00,0,Wunderground v.1.15,2013-01-17 05:23:00,
2013-01-16 21:28:00,35.2,31.7,30.56,NE,53,0.0,1.0,87,0.00,,,0.00,0,Wunderground v.1.15,2013-01-17 05:28:00,
2013-01-16 21:33:00,35.2,31.7,30.56,NE,53,1.0,1.0,87,0.00,,,0.00,0,Wunderground v.1.15,2013-01-17 05:33:00,
2013-01-16 21:38:00,35.2,31.7,30.56,NE,53,0.0,1.0,87,0.00,,,0.00,0,Wunderground v.1.15,2013-01-17 05:38:00,
2013-01-16 21:43:00,35.1,31.6,30.56,NE,53,1.0,2.0,87,0.00,,,0.00,0,Wunderground v.1.15,2013-01-17 05:43:00,
2013-01-16 21:48:00,35.1,31.6,30.56,NE,53,0.0,2.0,87,0.00,,,0.00,0,Wunderground v.1.15,2013-01-17 05:48:00,
2013-01-16 21:53:00,34.9,31.4,30.56,NE,53,0.0,1.0,87,0.00,,,0.00,0,Wunderground v.1.15,2013-01-17 05:53:00,
2013-01-16 21:58:00,34.7,31.2,30.56,NE,53,0.0,1.0,87,0.00,,,0.00,0,Wunderground v.1.15,2013-01-17 05:58:00,
2013-01-16 22:03:00,34.5,31.0,30.56,NE,53,0.0,1.0,87,0.00,,,0.00,0,Wunderground v.1.15,2013-01-17 06:03:00,
2013-01-16 22:08:00,34.3,31.1,30.56,NE,53,0.0,2.0,88,0.00,,,0.00,0,Wunderground v.1.15,2013-01-17 06:08:00,
2013-01-16 22:13:00,34.3,31.1,30.56,NE,53,1.0,2.0,88,0.00,,,0.00,0,Wunderground v.1.15,2013-01-17 06:13:00,
2013-01-16 22:18:00,34.2,31.0,30.56,NE,53,0.0,2.0,88,0.00,,,0.00,0,Wunderground v.1.15,2013-01-17 06:18:00,
2013-01-16 22:23:00,34.1,30.9,30.55,NE,53,0.0,0.0,88,0.00,,,0.00,0,Wunderground v.1.15,2013-01-17 06:23:00,
2013-01-16 22:28:00,34.0,30.8,30.55,NE,53,0.0,1.0,88,0.00,,,0.00,0,Wunderground v.1.15,2013-01-17 06:28:00,
2013-01-16 22:33:00,33.9,30.7,30.55,NE,53,0.0,0.0,88,0.00,,,0.00,0,Wunderground v.1.15,2013-01-17 06:33:00,
2013-01-16 22:38:00,33.9,31.0,30.55,NE,53,0.0,0.0,89,0.00,,,0.00,0,Wunderground v.1.15,2013-01-17 06:38:00,
2013-01-16 22:43:00,33.9,31.0,30.55,NE,53,0.0,1.0,89,0.00,,,0.00,0,Wunderground v.1.15,2013-01-17 06:43:00,
2013-01-16 22:48:00,33.9,31.0,30.55,NE,53,0.0,2.0,89,0.00,,,0.00,0,Wunderground v.1.15,2013-01-17 06:48:00,
2013-01-16 22:53:00,33.9,31.0,30.55,NE,53,0.0,2.0,89,0.00,,,0.00,0,Wunderground v.1.15,2013-01-17 06:53:00,
2013-01-16 22:58:00,33.8,30.9,30.55,NE,53,0.0,2.0,89,0.00,,,0.00,0,Wunderground v.1.15,2013-01-17 06:58:00,
2013-01-16 23:03:00,33.8,30.9,30.55,NE,53,0.0,1.0,89,0.00,,,0.00,0,Wunderground v.1.15,2013-01-17 07:03:00,
2013-01-16 23:08:00,33.8,30.9,30.55,NE,53,0.0,1.0,89,0.00,,,0.00,0,Wunderground v.1.15,2013-01-17 07:08:00,
2013-01-16 23:13:00,33.8,31.2,30.55,NE,53,0.0,0.0,90,0.00,,,0.00,0,Wunderground v.1.15,2013-01-17 07:13:00,
2013-01-16 23:18:00,33.7,31.1,30.55,NE,53,0.0,1.0,90,0.00,,,0.00,0,Wunderground v.1.15,2013-01-17 07:18:00,
2013-01-16 23:23:00,33.7,31.1,30.55,NE,53,0.0,2.0,90,0.00,,,0.00,0,Wunderground v.1.15,2013-01-17 07:23:00,
2013-01-16 23:28:00,33.7,31.1,30.55,NE,53,0.0,2.0,90,0.00,,,0.00,0,Wunderground v.1.15,2013-01-17 07:28:00,
2013-01-16 23:33:00,33.8,31.2,30.55,NE,53,0.0,0.0,90,0.00,,,0.00,0,Wunderground v.1.15,2013-01-17 07:33:00,
2013-01-16 23:38:00,33.8,31.2,30.55,NE,53,0.0,1.0,90,0.00,,,0.00,0,Wunderground v.1.15,2013-01-17 07:38:00,
2013-01-16 23:43:00,33.8,31.2,30.55,NE,53,0.0,1.0,90,0.00,,,0.00,0,Wunderground v.1.15,2013-01-17 07:43:00,
2013-01-16 23:48:00,33.8,31.2,30.55,NE,53,0.0,2.0,90,0.00,,,0.00,0,Wunderground v.1.15,2013-01-17 07:48:00,
2013-01-16 23:53:00,33.7,31.1,30.55,NE,53,0.0,1.0,90,0.00,,,0.00,0,Wunderground v.1.15,2013-01-17 07:53:00,
2013-01-16 23:58:00,33.7,31.1,30.55,NE,53,0.0,1.0,90,0.00,,,0.00,0,Wunderground v.1.15,2013-01-17 07:58:00,